createdAt,value
2019-05-19T00:17:22.207Z,14.50
2019-05-19T00:22:27.546Z,14.60
2019-05-19T00:27:33.023Z,14.70
2019-05-19T00:32:38.184Z,14.70
2019-05-19T00:37:43.581Z,14.70
2019-05-19T00:42:49.134Z,14.70
2019-05-19T00:47:57.943Z,14.50
2019-05-19T00:53:04.160Z,14.40
2019-05-19T00:58:15.778Z,14.30
2019-05-19T01:03:20.961Z,14.20
2019-05-19T01:08:26.137Z,14.20
2019-05-19T01:13:31.408Z,14.20
2019-05-19T01:18:36.780Z,14.30
2019-05-19T01:23:41.909Z,14.20
2019-05-19T01:28:47.284Z,14.10
2019-05-19T01:33:52.532Z,14.00
2019-05-19T01:38:57.651Z,14.00
2019-05-19T01:44:02.629Z,14.00
2019-05-19T01:49:07.525Z,14.00
2019-05-19T01:54:12.348Z,14.00
2019-05-19T01:59:17.736Z,13.90
2019-05-19T02:04:23.572Z,13.90
2019-05-19T02:09:28.531Z,13.90
2019-05-19T02:14:33.584Z,14.00
2019-05-19T02:19:38.444Z,14.00
2019-05-19T02:24:43.396Z,14.00
2019-05-19T02:29:48.628Z,14.10
2019-05-19T02:34:54.454Z,14.00
2019-05-19T02:40:00.312Z,14.00
2019-05-19T02:45:06.607Z,14.10
2019-05-19T02:50:12.525Z,14.10
2019-05-19T02:55:18.693Z,14.20
2019-05-19T03:00:38.714Z,14.20
2019-05-19T03:05:45.439Z,14.20
2019-05-19T03:10:51.652Z,14.20
2019-05-19T03:15:56.828Z,14.10
2019-05-19T03:21:11.236Z,14.00
2019-05-19T03:26:09.829Z,14.00
2019-05-19T03:31:33.701Z,13.90
2019-05-19T03:36:39.044Z,13.80
2019-05-19T03:41:44.556Z,13.70
2019-05-19T03:46:49.735Z,13.80
2019-05-19T03:51:54.693Z,13.70
2019-05-19T03:56:59.500Z,13.70
2019-05-19T04:02:05.789Z,13.70
2019-05-19T04:07:10.956Z,13.60
2019-05-19T04:12:16.111Z,13.50
2019-05-19T04:17:21.311Z,13.40
2019-05-19T04:22:26.615Z,13.40
2019-05-19T04:27:31.407Z,13.30
2019-05-19T04:32:36.591Z,13.30
2019-05-19T04:37:41.428Z,13.20
2019-05-19T04:42:46.735Z,13.20
2019-05-19T04:47:52.280Z,13.30
2019-05-19T04:52:57.453Z,13.30
2019-05-19T04:58:02.223Z,13.30
2019-05-19T05:03:07.395Z,13.30
2019-05-19T05:08:27.862Z,13.30
2019-05-19T05:13:19.738Z,13.40
2019-05-19T05:18:24.543Z,13.50
2019-05-19T05:23:30.617Z,13.50
2019-05-19T05:28:35.675Z,13.60
2019-05-19T05:33:40.744Z,13.60
2019-05-19T05:38:45.647Z,13.70
2019-05-19T05:43:50.493Z,13.70
2019-05-19T05:48:56.464Z,13.80
2019-05-19T05:54:01.655Z,13.80
2019-05-19T05:59:06.750Z,13.90
2019-05-19T06:04:11.979Z,13.90
2019-05-19T06:09:17.255Z,13.90
2019-05-19T06:14:22.260Z,14.00
2019-05-19T06:19:27.371Z,14.10
2019-05-19T06:24:32.323Z,14.10
2019-05-19T06:29:38.015Z,14.30
2019-05-19T06:34:43.824Z,14.30
2019-05-19T06:39:49.311Z,14.50
2019-05-19T06:44:55.716Z,14.70
2019-05-19T06:50:00.756Z,14.90
2019-05-19T06:55:07.505Z,14.90
2019-05-19T07:00:12.802Z,14.90
2019-05-19T07:05:18.042Z,14.90
2019-05-19T07:10:24.599Z,15.10
2019-05-19T07:15:29.567Z,15.10
2019-05-19T07:20:36.367Z,15.00
2019-05-19T07:25:41.377Z,15.10
2019-05-19T07:30:47.261Z,15.20
2019-05-19T07:35:55.199Z,15.30
2019-05-19T07:41:00.259Z,15.20
2019-05-19T07:46:05.269Z,15.20
2019-05-19T07:51:10.351Z,15.30
2019-05-19T07:56:15.216Z,15.30
2019-05-19T08:01:20.300Z,15.30
2019-05-19T08:06:25.206Z,15.30
2019-05-19T08:11:30.345Z,15.50
2019-05-19T08:16:35.512Z,15.60
2019-05-19T08:21:40.764Z,15.80
2019-05-19T08:26:45.647Z,16.10
2019-05-19T08:31:51.077Z,16.20
2019-05-19T08:36:56.419Z,16.40
2019-05-19T08:42:01.475Z,16.40
2019-05-19T08:47:06.436Z,16.60
2019-05-19T08:52:11.355Z,16.60
2019-05-19T08:57:16.745Z,16.80
2019-05-19T09:02:21.889Z,16.90
2019-05-19T09:07:26.710Z,16.90
2019-05-19T09:12:32.638Z,16.70
2019-05-19T09:17:37.843Z,16.50
2019-05-19T09:22:42.975Z,16.50
2019-05-19T09:27:48.116Z,16.20
2019-05-19T09:32:52.974Z,16.10
2019-05-19T09:37:58.167Z,16.00
2019-05-19T09:43:02.994Z,16.00
2019-05-19T09:48:07.870Z,16.20
2019-05-19T09:53:12.960Z,16.50
2019-05-19T09:58:20.049Z,16.70
2019-05-19T10:03:24.608Z,16.80
2019-05-19T10:08:36.276Z,16.80
2019-05-19T10:13:42.033Z,16.90
2019-05-19T10:18:46.899Z,17.00
2019-05-19T10:23:52.080Z,17.20
2019-05-19T10:28:57.143Z,17.40
2019-05-19T10:34:02.345Z,17.30
2019-05-19T10:39:07.404Z,17.60
2019-05-19T10:44:12.644Z,17.60
2019-05-19T10:49:17.563Z,17.60
2019-05-19T10:54:23.154Z,17.80
2019-05-19T10:59:28.086Z,17.60
2019-05-19T11:04:33.614Z,17.60
2019-05-19T11:09:38.493Z,17.80
2019-05-19T11:14:44.570Z,17.70
2019-05-19T11:19:50.105Z,17.70
2019-05-19T11:24:55.308Z,17.60
2019-05-19T11:30:00.743Z,17.70
2019-05-19T11:35:05.907Z,17.60
2019-05-19T11:40:11.676Z,17.40
2019-05-19T11:45:17.195Z,17.40
2019-05-19T11:50:22.002Z,17.50
2019-05-19T11:55:27.196Z,17.70
2019-05-19T12:00:32.169Z,17.60
2019-05-19T12:05:37.109Z,17.60
2019-05-19T12:10:41.933Z,17.80
2019-05-19T12:15:46.842Z,17.80
2019-05-19T12:20:51.787Z,17.90
2019-05-19T12:25:56.682Z,18.10
2019-05-19T12:31:01.561Z,18.10
2019-05-19T12:36:06.814Z,18.40
2019-05-19T12:41:14.413Z,18.30
2019-05-19T12:46:19.368Z,18.40
2019-05-19T12:51:26.819Z,18.40
2019-05-19T12:56:39.880Z,18.40
2019-05-19T13:01:37.841Z,18.40
2019-05-19T13:06:43.248Z,18.00
2019-05-19T13:11:48.092Z,18.10
2019-05-19T13:16:54.593Z,17.50
2019-05-19T13:21:59.932Z,17.30
2019-05-19T13:27:05.227Z,17.00
2019-05-19T13:32:10.119Z,17.10
2019-05-19T13:37:15.066Z,16.70
2019-05-19T13:42:20.112Z,16.90
2019-05-19T13:47:24.980Z,16.50
2019-05-19T13:52:30.200Z,16.80
2019-05-19T13:57:35.129Z,16.90
2019-05-19T14:02:40.454Z,16.70
2019-05-19T14:07:45.668Z,16.50
2019-05-19T14:12:51.291Z,16.70
2019-05-19T14:17:56.665Z,16.10
2019-05-19T14:23:01.731Z,16.30
2019-05-19T14:28:06.766Z,15.90
2019-05-19T14:33:11.644Z,15.50
2019-05-19T14:38:17.152Z,15.50
2019-05-19T14:48:27.301Z,15.00
2019-05-19T14:53:32.368Z,14.90
2019-05-19T14:58:38.687Z,15.00
2019-05-19T15:03:43.699Z,14.70
2019-05-19T15:08:48.617Z,14.80
2019-05-19T15:13:53.424Z,15.00
2019-05-19T15:19:00.011Z,15.10
2019-05-19T15:24:05.395Z,15.10
2019-05-19T15:29:12.488Z,14.80
2019-05-19T15:34:17.659Z,14.60
2019-05-19T15:39:22.608Z,14.60
2019-05-19T15:44:27.787Z,14.90
2019-05-19T15:49:32.757Z,14.60
2019-05-19T15:54:38.144Z,14.20
2019-05-19T15:59:43.144Z,14.50
2019-05-19T16:04:48.130Z,14.50
2019-05-19T16:09:54.372Z,14.20
2019-05-19T16:14:59.195Z,14.00
2019-05-19T16:20:05.058Z,13.90
2019-05-19T16:25:10.267Z,14.20
2019-05-19T16:30:15.667Z,14.30
2019-05-19T16:35:21.520Z,14.10
2019-05-19T16:40:26.762Z,14.00
2019-05-19T16:45:32.503Z,13.80
2019-05-19T16:50:37.531Z,13.80
2019-05-19T16:55:42.790Z,13.90
2019-05-19T17:00:47.774Z,13.90
2019-05-19T17:05:52.780Z,13.90
2019-05-19T17:10:57.999Z,13.90
2019-05-19T17:16:03.235Z,13.80
2019-05-19T17:21:08.127Z,13.60
2019-05-19T17:26:14.483Z,13.30
2019-05-19T17:31:20.322Z,13.30
2019-05-19T17:36:27.505Z,13.20
2019-05-19T17:41:32.674Z,13.40
2019-05-19T17:46:38.112Z,13.40
2019-05-19T17:51:43.459Z,13.30
2019-05-19T17:56:50.453Z,13.00
2019-05-19T18:07:01.151Z,12.90
2019-05-19T18:12:06.407Z,12.80
2019-05-19T18:17:11.345Z,12.80
2019-05-19T18:22:16.544Z,12.90
2019-05-19T18:27:21.608Z,12.70
2019-05-19T18:32:26.976Z,12.80
2019-05-19T18:37:31.918Z,12.80
2019-05-19T18:42:38.372Z,12.70
2019-05-19T18:47:44.049Z,12.60
2019-05-19T18:52:50.103Z,12.50
2019-05-19T18:57:54.864Z,12.50
2019-05-19T19:03:00.401Z,12.30
2019-05-19T19:08:05.435Z,12.30
2019-05-19T19:13:10.225Z,12.20
2019-05-19T19:18:15.167Z,12.30
2019-05-19T19:23:20.236Z,12.40
2019-05-19T19:28:27.067Z,12.40
2019-05-19T19:33:32.333Z,12.40
2019-05-19T19:38:37.200Z,12.30
2019-05-19T19:43:42.211Z,12.30
2019-05-19T19:48:47.581Z,12.20
2019-05-19T19:53:52.672Z,12.20
2019-05-19T19:58:58.127Z,12.40
2019-05-19T20:04:04.974Z,12.50
2019-05-19T20:09:10.030Z,12.50
2019-05-19T20:14:14.993Z,12.40
2019-05-19T20:19:19.837Z,12.40
2019-05-19T20:24:25.010Z,12.30
2019-05-19T20:29:29.843Z,12.40
2019-05-19T20:34:34.969Z,12.50
2019-05-19T20:39:40.062Z,12.50
2019-05-19T20:44:47.380Z,12.40
2019-05-19T20:49:52.580Z,12.50
2019-05-19T20:54:58.057Z,12.40
2019-05-19T21:00:03.474Z,12.50
2019-05-19T21:05:08.872Z,12.50
2019-05-19T21:10:14.329Z,12.40
2019-05-19T21:15:19.092Z,12.40
2019-05-19T21:20:24.011Z,12.30
2019-05-19T21:25:28.775Z,12.40
2019-05-19T21:30:34.038Z,12.40
2019-05-19T21:35:39.989Z,12.50
2019-05-19T21:40:45.257Z,12.50
2019-05-19T21:45:50.397Z,12.50
2019-05-19T21:50:55.964Z,12.50
2019-05-19T21:56:01.646Z,12.70
2019-05-19T22:01:21.836Z,12.70
2019-05-19T22:06:13.115Z,12.80
2019-05-19T22:11:17.979Z,12.70
2019-05-19T22:16:22.750Z,12.80
2019-05-19T22:21:27.555Z,12.80
2019-05-19T22:26:32.904Z,12.80
2019-05-19T22:31:38.279Z,12.80
2019-05-19T22:36:43.680Z,12.80
